sensor_id;sensor_type;location;lat;lon;timestamp;P1;durP1;ratioP1;P2;durP2;ratioP2
58731;SDS011;44508;44.626;21.182;2023-01-28T00:00:30;102.60;;;58.17;;
58731;SDS011;44508;44.626;21.182;2023-01-28T00:02:56;111.32;;;62.35;;
58731;SDS011;44508;44.626;21.182;2023-01-28T00:05:22;105.70;;;61.63;;
58731;SDS011;44508;44.626;21.182;2023-01-28T00:07:49;109.68;;;62.17;;
58731;SDS011;44508;44.626;21.182;2023-01-28T00:10:15;102.63;;;57.60;;
58731;SDS011;44508;44.626;21.182;2023-01-28T00:12:41;100.25;;;55.50;;
58731;SDS011;44508;44.626;21.182;2023-01-28T00:15:07;97.93;;;56.67;;
58731;SDS011;44508;44.626;21.182;2023-01-28T00:17:34;100.18;;;56.35;;
58731;SDS011;44508;44.626;21.182;2023-01-28T00:20:02;101.18;;;56.78;;
58731;SDS011;44508;44.626;21.182;2023-01-28T00:22:28;100.32;;;58.08;;
58731;SDS011;44508;44.626;21.182;2023-01-28T00:24:54;120.80;;;66.05;;
58731;SDS011;44508;44.626;21.182;2023-01-28T00:27:20;114.05;;;61.03;;
58731;SDS011;44508;44.626;21.182;2023-01-28T00:29:46;105.03;;;56.88;;
58731;SDS011;44508;44.626;21.182;2023-01-28T00:32:12;106.63;;;57.95;;
58731;SDS011;44508;44.626;21.182;2023-01-28T00:34:39;95.60;;;54.78;;
58731;SDS011;44508;44.626;21.182;2023-01-28T00:37:05;91.78;;;53.92;;
58731;SDS011;44508;44.626;21.182;2023-01-28T00:39:31;100.45;;;56.15;;
58731;SDS011;44508;44.626;21.182;2023-01-28T00:41:57;110.30;;;60.67;;
58731;SDS011;44508;44.626;21.182;2023-01-28T00:44:23;105.18;;;57.17;;
58731;SDS011;44508;44.626;21.182;2023-01-28T00:46:49;103.20;;;56.72;;
58731;SDS011;44508;44.626;21.182;2023-01-28T00:49:15;106.97;;;59.72;;
58731;SDS011;44508;44.626;21.182;2023-01-28T00:51:41;110.88;;;63.22;;
58731;SDS011;44508;44.626;21.182;2023-01-28T00:54:07;110.90;;;63.03;;
58731;SDS011;44508;44.626;21.182;2023-01-28T00:56:33;105.75;;;60.85;;
58731;SDS011;44508;44.626;21.182;2023-01-28T00:59:01;109.85;;;60.88;;
58731;SDS011;44508;44.626;21.182;2023-01-28T01:01:27;100.45;;;55.45;;
58731;SDS011;44508;44.626;21.182;2023-01-28T01:03:53;88.22;;;50.10;;
58731;SDS011;44508;44.626;21.182;2023-01-28T01:06:26;91.38;;;53.53;;
58731;SDS011;44508;44.626;21.182;2023-01-28T01:08:53;95.57;;;56.03;;
58731;SDS011;44508;44.626;21.182;2023-01-28T01:11:19;95.78;;;55.80;;
58731;SDS011;44508;44.626;21.182;2023-01-28T01:13:54;100.93;;;58.78;;
58731;SDS011;44508;44.626;21.182;2023-01-28T01:16:22;102.28;;;58.03;;
58731;SDS011;44508;44.626;21.182;2023-01-28T01:18:49;102.60;;;55.92;;
58731;SDS011;44508;44.626;21.182;2023-01-28T01:21:16;95.85;;;51.85;;
58731;SDS011;44508;44.626;21.182;2023-01-28T01:23:43;88.00;;;50.63;;
58731;SDS011;44508;44.626;21.182;2023-01-28T01:26:09;76.35;;;44.97;;
58731;SDS011;44508;44.626;21.182;2023-01-28T01:28:36;73.28;;;44.58;;
58731;SDS011;44508;44.626;21.182;2023-01-28T01:31:06;79.28;;;46.97;;
58731;SDS011;44508;44.626;21.182;2023-01-28T01:33:32;74.40;;;44.30;;
58731;SDS011;44508;44.626;21.182;2023-01-28T01:35:59;75.40;;;45.55;;
58731;SDS011;44508;44.626;21.182;2023-01-28T01:38:26;82.85;;;48.83;;
58731;SDS011;44508;44.626;21.182;2023-01-28T01:40:54;80.50;;;45.70;;
58731;SDS011;44508;44.626;21.182;2023-01-28T01:43:22;86.05;;;48.33;;
58731;SDS011;44508;44.626;21.182;2023-01-28T01:45:49;79.30;;;45.05;;
58731;SDS011;44508;44.626;21.182;2023-01-28T01:48:22;71.00;;;42.13;;
58731;SDS011;44508;44.626;21.182;2023-01-28T01:50:51;73.85;;;43.95;;
58731;SDS011;44508;44.626;21.182;2023-01-28T01:53:18;79.90;;;47.03;;
58731;SDS011;44508;44.626;21.182;2023-01-28T01:55:46;74.63;;;45.33;;
58731;SDS011;44508;44.626;21.182;2023-01-28T01:58:13;74.85;;;45.38;;
58731;SDS011;44508;44.626;21.182;2023-01-28T02:00:40;70.38;;;44.97;;
58731;SDS011;44508;44.626;21.182;2023-01-28T02:03:07;75.75;;;45.83;;
58731;SDS011;44508;44.626;21.182;2023-01-28T02:05:34;74.80;;;43.72;;
58731;SDS011;44508;44.626;21.182;2023-01-28T02:08:00;70.97;;;43.95;;
58731;SDS011;44508;44.626;21.182;2023-01-28T02:10:49;80.73;;;45.20;;
58731;SDS011;44508;44.626;21.182;2023-01-28T02:13:17;75.00;;;44.05;;
58731;SDS011;44508;44.626;21.182;2023-01-28T02:15:44;75.95;;;44.15;;
58731;SDS011;44508;44.626;21.182;2023-01-28T02:18:10;68.38;;;42.42;;
58731;SDS011;44508;44.626;21.182;2023-01-28T02:28:26;64.35;;;40.50;;
58731;SDS011;44508;44.626;21.182;2023-01-28T02:31:00;61.58;;;38.53;;
58731;SDS011;44508;44.626;21.182;2023-01-28T02:33:36;63.90;;;39.75;;
58731;SDS011;44508;44.626;21.182;2023-01-28T02:38:53;59.67;;;37.17;;
58731;SDS011;44508;44.626;21.182;2023-01-28T02:41:23;65.93;;;39.25;;
58731;SDS011;44508;44.626;21.182;2023-01-28T02:43:50;59.92;;;37.22;;
58731;SDS011;44508;44.626;21.182;2023-01-28T02:49:11;67.38;;;39.17;;
58731;SDS011;44508;44.626;21.182;2023-01-28T02:56:51;65.80;;;40.05;;
58731;SDS011;44508;44.626;21.182;2023-01-28T02:59:26;72.72;;;41.25;;
